Time;durP1;ratioP1;P1;durP2;ratioP2;P2;SDS_P1;SDS_P2;PMS_P1;PMS_P2;Temp;Humidity;BMP_temperature;BMP_pressure;BME280_temperature;BME280_humidity;BME280_pressure;Samples;Min_cycle;Max_cycle;Signal;HPM_P1;HPM_P2
2022/08/01 00:00:30;;;;;;;;;;;;;;;27.03;59.51;97713.56;5142779;27;19995;-65
2022/08/01 00:02:57;;;;;;;;;;;;;;;26.96;59.57;97715.41;5139614;27;20053;-64
2022/08/01 00:05:23;;;;;;;;;;;;;;;26.74;60.58;97709.66;5139615;27;20403;-64
2022/08/01 00:07:49;;;;;;;;;;;;;;;26.82;60.24;97707.84;5142356;27;19927;-64
2022/08/01 00:10:17;;;;;;;;;;;;;;;26.96;59.67;97707.19;5143032;27;19959;-64
2022/08/01 00:12:45;;;;;;;;;;;;;;;26.99;59.46;97706.44;5133441;27;19930;-64
2022/08/01 00:15:12;;;;;;;;;;;;;;;26.78;58.88;97709.72;5139560;27;19930;-65
2022/08/01 00:17:39;;;;;;;;;;;;;;;26.68;59.35;97708.41;5140677;27;19931;-65
2022/08/01 00:20:06;;;;;;;;;;;;;;;26.56;60.19;97705.94;5142866;27;19923;-64
2022/08/01 00:22:33;;;;;;;;;;;;;;;26.54;60.01;97701.97;5142456;27;19927;-65
2022/08/01 00:25:00;;;;;;;;;;;;;;;26.59;59.70;97705.19;5139468;27;19924;-64
2022/08/01 00:27:26;;;;;;;;;;;;;;;26.62;59.72;97698.97;5139342;27;19951;-64
2022/08/01 00:29:54;;;;;;;;;;;;;;;26.56;59.92;97699.66;5142513;27;19937;-65
2022/08/01 00:32:20;;;;;;;;;;;;;;;26.70;59.62;97702.59;5142867;27;19930;-65
2022/08/01 00:34:46;;;;;;;;;;;;;;;26.67;59.52;97706.88;5140175;27;19931;-65
2022/08/01 00:37:13;;;;;;;;;;;;;;;26.53;60.20;97705.88;5139361;27;19959;-65
2022/08/01 00:39:39;;;;;;;;;;;;;;;26.51;60.47;97698.03;5140696;27;19923;-64
2022/08/01 00:42:07;;;;;;;;;;;;;;;26.12;62.36;97697.47;5138352;28;20547;-65
2022/08/01 00:44:33;;;;;;;;;;;;;;;26.09;63.04;97700.94;5138768;28;19962;-65
2022/08/01 00:47:01;;;;;;;;;;;;;;;25.89;64.70;97698.69;5139125;28;19924;-65
2022/08/01 00:49:27;;;;;;;;;;;;;;;25.71;66.61;97699.22;5139254;28;19924;-66
2022/08/01 00:51:54;;;;;;;;;;;;;;;25.77;66.83;97705.19;5142284;28;19930;-64
2022/08/01 00:54:20;;;;;;;;;;;;;;;25.70;68.15;97702.31;5142608;28;19979;-65
2022/08/01 00:56:47;;;;;;;;;;;;;;;25.88;67.23;97697.09;5140057;28;19919;-65
2022/08/01 00:59:14;;;;;;;;;;;;;;;26.15;65.52;97693.25;5138974;28;19947;-64
2022/08/01 01:01:41;;;;;;;;;;;;;;;26.37;64.70;97691.59;5140588;28;19930;-65
2022/08/01 01:04:09;;;;;;;;;;;;;;;26.46;64.32;97690.13;5142574;28;19923;-65
2022/08/01 01:06:41;;;;;;;;;;;;;;;26.52;64.06;97682.41;5141569;28;19955;-65
2022/08/01 01:09:20;;;;;;;;;;;;;;;26.57;63.99;97685.59;5138928;28;19951;-65
2022/08/01 01:11:50;;;;;;;;;;;;;;;26.51;64.32;97686.28;5139611;28;20579;-65
2022/08/01 01:14:22;;;;;;;;;;;;;;;26.50;64.41;97687.44;5137199;28;19931;-66
2022/08/01 01:16:50;;;;;;;;;;;;;;;26.27;65.88;97682.09;5139665;28;19923;-64
2022/08/01 01:19:21;;;;;;;;;;;;;;;26.13;66.98;97693.59;5139047;28;20015;-65
2022/08/01 01:21:57;;;;;;;;;;;;;;;25.62;71.15;97690.50;5141391;28;19924;-64
2022/08/01 01:24:29;;;;;;;;;;;;;;;25.96;69.11;97694.13;5142360;28;19967;-64
2022/08/01 01:27:01;;;;;;;;;;;;;;;26.11;67.96;97701.38;5130425;28;20577;-64
2022/08/01 01:29:31;;;;;;;;;;;;;;;26.23;67.18;97701.19;5138644;28;20492;-65
2022/08/01 01:31:59;;;;;;;;;;;;;;;26.41;66.22;97700.63;5130581;28;19923;-64
2022/08/01 01:34:28;;;;;;;;;;;;;;;26.52;65.37;97701.59;5138738;28;19927;-66
2022/08/01 01:36:55;;;;;;;;;;;;;;;26.51;65.34;97691.78;5130044;28;19966;-65
2022/08/01 01:39:22;;;;;;;;;;;;;;;26.53;65.32;97695.72;5138681;28;19935;-65
2022/08/01 01:41:49;;;;;;;;;;;;;;;26.56;65.22;97689.50;5139480;28;19931;-65
2022/08/01 01:44:16;;;;;;;;;;;;;;;26.58;65.18;97692.66;5136532;28;19923;-65
2022/08/01 01:46:44;;;;;;;;;;;;;;;26.63;64.85;97689.59;5140176;28;19923;-65
2022/08/01 01:49:11;;;;;;;;;;;;;;;26.64;64.82;97691.19;5138605;28;19924;-65
2022/08/01 01:51:39;;;;;;;;;;;;;;;26.60;64.97;97689.53;5139691;28;19930;-65
2022/08/01 01:54:05;;;;;;;;;;;;;;;26.61;64.99;97688.38;5142157;28;19970;-65
2022/08/01 01:56:32;;;;;;;;;;;;;;;26.60;65.05;97684.84;5143577;27;19963;-66
2022/08/01 01:59:01;;;;;;;;;;;;;;;26.55;65.11;97682.47;5142366;27;19931;-64
2022/08/01 02:01:29;;;;;;;;;;;;;;;26.50;65.45;97692.94;5142127;27;19923;-65
2022/08/01 02:03:57;;;;;;;;;;;;;;;26.52;65.48;97683.19;5133772;27;19966;-66
2022/08/01 02:06:24;;;;;;;;;;;;;;;26.57;65.28;97690.28;5142208;27;19976;-65
2022/08/01 02:08:52;;;;;;;;;;;;;;;26.45;65.71;97682.31;5144977;27;19983;-64
2022/08/01 02:11:21;;;;;;;;;;;;;;;26.51;65.57;97692.56;5145590;27;19968;-65
2022/08/01 02:13:48;;;;;;;;;;;;;;;26.51;65.79;97700.78;5136927;27;19949;-65
2022/08/01 02:16:16;;;;;;;;;;;;;;;26.45;65.98;97694.06;5145592;27;19923;-65
2022/08/01 02:18:43;;;;;;;;;;;;;;;26.51;66.18;97691.78;5143406;27;19942;-65
2022/08/01 02:21:14;;;;;;;;;;;;;;;26.47;66.28;97702.69;5141698;27;20315;-66
2022/08/01 02:23:41;;;;;;;;;;;;;;;26.57;65.92;97693.03;5143230;27;20015;-65
2022/08/01 02:26:10;;;;;;;;;;;;;;;26.59;65.75;97694.22;5144977;27;19991;-65
2022/08/01 02:28:39;;;;;;;;;;;;;;;26.59;65.58;97702.44;5144262;27;19935;-64
2022/08/01 02:31:07;;;;;;;;;;;;;;;26.52;66.16;97705.09;5141541;27;19928;-66
2022/08/01 02:33:36;;;;;;;;;;;;;;;26.51;66.54;97700.78;5142247;27;19999;-65
2022/08/01 02:36:03;;;;;;;;;;;;;;;26.57;66.17;97699.28;5145060;27;19949;-66
2022/08/01 02:38:32;;;;;;;;;;;;;;;26.53;66.28;97703.94;5145010;27;19999;-65
2022/08/01 02:41:00;;;;;;;;;;;;;;;26.49;66.74;97703.09;5140366;27;20027;-65
2022/08/01 02:43:29;;;;;;;;;;;;;;;26.42;67.38;97704.97;5133684;27;19965;-64
2022/08/01 02:45:59;;;;;;;;;;;;;;;26.42;67.94;97704.97;5132702;27;20027;-65
2022/08/01 02:48:27;;;;;;;;;;;;;;;26.42;68.23;97708.50;5140356;27;21308;-65
2022/08/01 02:50:55;;;;;;;;;;;;;;;26.38;68.57;97707.66;5143475;27;19950;-64
2022/08/01 02:53:23;;;;;;;;;;;;;;;26.38;68.84;97707.66;5144836;27;19931;-65
2022/08/01 02:55:52;;;;;;;;;;;;;;;26.48;68.37;97717.16;5141638;27;19934;-65
2022/08/01 02:58:19;;;;;;;;;;;;;;;26.42;68.77;97711.22;5141127;27;20027;-64
2022/08/01 03:00:46;;;;;;;;;;;;;;;26.39;69.39;97722.94;5143228;27;19924;-64
2022/08/01 03:03:13;;;;;;;;;;;;;;;26.43;68.94;97726.47;5144703;27;19934;-64
2022/08/01 03:05:40;;;;;;;;;;;;;;;26.38;69.25;97720.53;5143084;27;19923;-64
2022/08/01 03:08:07;;;;;;;;;;;;;;;26.40;69.68;97713.53;5140928;27;19930;-65
2022/08/01 03:10:35;;;;;;;;;;;;;;;26.34;70.27;97717.75;5141526;27;19923;-64
2022/08/01 03:13:03;;;;;;;;;;;;;;;26.35;70.61;97721.28;5139552;27;20629;-65
2022/08/01 03:15:31;;;;;;;;;;;;;;;26.29;70.88;97721.63;5140691;27;19948;-65
2022/08/01 03:17:59;;;;;;;;;;;;;;;26.30;70.98;97720.44;5144203;27;19924;-65
2022/08/01 03:20:28;;;;;;;;;;;;;;;26.26;71.29;97727.03;5144298;27;19951;-64
2022/08/01 03:22:55;;;;;;;;;;;;;;;26.26;70.86;97729.78;5140524;27;19920;-66
2022/08/01 03:25:22;;;;;;;;;;;;;;;26.27;71.09;97728.63;5140653;27;19963;-65
2022/08/01 03:27:52;;;;;;;;;;;;;;;26.34;69.96;97720.50;5143183;27;19938;-65
2022/08/01 03:30:21;;;;;;;;;;;;;;;26.39;69.08;97727.59;5144056;27;19979;-65
2022/08/01 03:32:47;;;;;;;;;;;;;;;26.42;68.10;97729.59;5141227;27;19930;-65
2022/08/01 03:35:14;;;;;;;;;;;;;;;26.37;67.72;97729.94;5139284;27;19970;-64
2022/08/01 03:37:43;;;;;;;;;;;;;;;26.36;66.78;97734.63;5141805;27;19924;-65
2022/08/01 03:40:11;;;;;;;;;;;;;;;26.31;66.12;97743.13;5143868;27;19931;-65
2022/08/01 03:42:39;;;;;;;;;;;;;;;26.21;65.64;97733.59;5134735;27;19930;-65
2022/08/01 03:45:09;;;;;;;;;;;;;;;26.28;65.01;97736.47;5139955;27;19924;-65
2022/08/01 03:47:37;;;;;;;;;;;;;;;26.29;64.29;97740.00;5140812;27;19928;-65
2022/08/01 03:50:05;;;;;;;;;;;;;;;26.28;63.66;97746.63;5143797;27;19927;-66
2022/08/01 03:52:32;;;;;;;;;;;;;;;26.26;63.36;97751.69;5143305;27;19965;-65
2022/08/01 03:55:00;;;;;;;;;;;;;;;26.24;62.90;97749.28;5140070;27;19958;-65
2022/08/01 03:57:29;;;;;;;;;;;;;;;26.28;62.51;97743.88;5140116;27;19924;-64
2022/08/01 03:59:56;;;;;;;;;;;;;;;26.28;62.45;97741.13;5131497;27;19928;-65
2022/08/01 04:02:23;;;;;;;;;;;;;;;26.29;61.77;97751.72;5139861;27;19951;-64
2022/08/01 04:04:51;;;;;;;;;;;;;;;26.23;61.84;97747.75;5142626;27;20311;-65
2022/08/01 04:07:22;;;;;;;;;;;;;;;26.33;61.46;97753.72;5143445;27;19969;-65
2022/08/01 04:09:48;;;;;;;;;;;;;;;26.19;61.41;97751.56;5140551;27;20006;-65
2022/08/01 04:12:15;;;;;;;;;;;;;;;26.15;61.21;97750.72;5139563;27;19983;-66
2022/08/01 04:14:41;;;;;;;;;;;;;;;26.24;60.98;97754.00;5139673;27;19924;-65
2022/08/01 04:17:07;;;;;;;;;;;;;;;26.20;61.01;97753.16;5138584;27;19924;-65
2022/08/01 04:19:34;;;;;;;;;;;;;;;26.25;60.60;97758.31;5139763;27;20308;-65
2022/08/01 04:22:02;;;;;;;;;;;;;;;26.20;60.74;97758.63;5143035;27;19931;-64
2022/08/01 04:24:29;;;;;;;;;;;;;;;26.21;60.53;97760.22;5143081;27;19924;-64
2022/08/01 04:26:58;;;;;;;;;;;;;;;26.25;60.26;97767.31;5130990;27;19979;-65
2022/08/01 04:29:25;;;;;;;;;;;;;;;26.23;60.13;97769.63;5139291;27;19983;-65
2022/08/01 04:31:54;;;;;;;;;;;;;;;26.16;59.99;97775.00;5142203;27;19923;-64
2022/08/01 04:34:22;;;;;;;;;;;;;;;26.12;60.09;97765.91;5143019;27;19945;-66
2022/08/01 04:36:49;;;;;;;;;;;;;;;26.15;60.17;97769.88;5140236;27;19923;-65
2022/08/01 04:39:17;;;;;;;;;;;;;;;25.96;60.43;97772.69;5139252;27;19923;-64
2022/08/01 04:41:46;;;;;;;;;;;;;;;26.13;59.89;97777.66;5139946;27;19927;-65
2022/08/01 04:44:13;;;;;;;;;;;;;;;26.13;60.11;97781.19;5136808;28;19931;-65
2022/08/01 04:46:40;;;;;;;;;;;;;;;26.11;60.19;97788.97;5141116;27;20396;-65
2022/08/01 04:49:08;;;;;;;;;;;;;;;26.13;60.20;97778.44;5138962;27;19924;-65
2022/08/01 04:51:35;;;;;;;;;;;;;;;26.26;59.53;97784.53;5139521;28;19920;-66
2022/08/01 04:54:01;;;;;;;;;;;;;;;26.29;59.54;97784.59;5142471;28;19966;-65
2022/08/01 04:56:29;;;;;;;;;;;;;;;26.18;59.87;97791.84;5142671;28;19924;-66
2022/08/01 05:01:36;;;;;;;;;;;;;;;26.25;59.58;97804.84;5139462;28;19951;-65
2022/08/01 05:04:02;;;;;;;;;;;;;;;26.18;59.84;97808.25;5142434;28;19958;-67
2022/08/01 05:06:29;;;;;;;;;;;;;;;26.23;59.88;97815.38;5142427;28;19923;-65
2022/08/01 05:08:55;;;;;;;;;;;;;;;26.19;60.06;97806.31;5142390;28;19955;-65
2022/08/01 05:11:22;;;;;;;;;;;;;;;26.16;60.38;97812.53;5142365;28;19924;-64
2022/08/01 05:13:51;;;;;;;;;;;;;;;26.13;60.22;97818.69;5133425;28;19920;-65
2022/08/01 05:16:17;;;;;;;;;;;;;;;26.14;60.08;97826.56;5142137;28;19962;-65
2022/08/01 05:18:43;;;;;;;;;;;;;;;26.12;60.65;97817.91;5140309;28;19927;-65
2022/08/01 05:21:10;;;;;;;;;;;;;;;26.14;60.55;97831.25;5138684;28;19934;-65
2022/08/01 05:23:36;;;;;;;;;;;;;;;26.20;60.49;97829.81;5139489;28;19955;-67
2022/08/01 05:26:04;;;;;;;;;;;;;;;26.26;60.27;97820.13;5142020;28;19949;-65
2022/08/01 05:28:31;;;;;;;;;;;;;;;26.28;60.29;97824.06;5141930;28;19931;-65
2022/08/01 05:30:58;;;;;;;;;;;;;;;26.24;60.16;97825.19;5139521;27;19924;-66
2022/08/01 05:33:25;;;;;;;;;;;;;;;26.20;60.64;97836.06;5142497;27;20015;-65
2022/08/01 05:35:51;;;;;;;;;;;;;;;26.26;60.51;97842.81;5145390;27;19923;-65
2022/08/01 05:38:17;;;;;;;;;;;;;;;26.21;60.42;97834.91;5145935;27;19949;-65
2022/08/01 05:40:44;;;;;;;;;;;;;;;26.25;61.17;97838.50;5143981;27;19971;-66
2022/08/01 05:43:10;;;;;;;;;;;;;;;26.14;61.20;97834.78;5134325;27;19939;-66
2022/08/01 05:45:36;;;;;;;;;;;;;;;26.29;61.33;97844.03;5143001;27;19949;-65
2022/08/01 05:48:04;;;;;;;;;;;;;;;26.48;60.54;97838.47;5145850;27;19929;-65
2022/08/01 05:50:31;;;;;;;;;;;;;;;26.53;60.73;97842.81;5145791;27;19979;-65
2022/08/01 05:52:57;;;;;;;;;;;;;;;26.68;60.65;97842.66;5142040;27;19959;-65
2022/08/01 05:55:23;;;;;;;;;;;;;;;26.89;60.44;97844.16;5142322;27;19920;-64
2022/08/01 05:57:50;;;;;;;;;;;;;;;26.79;60.91;97845.56;5144921;27;19934;-66
2022/08/01 06:00:16;;;;;;;;;;;;;;;26.92;60.60;97840.69;5145794;27;19995;-65
2022/08/01 06:02:43;;;;;;;;;;;;;;;26.99;61.40;97848.97;5143624;27;19924;-65
2022/08/01 06:05:11;;;;;;;;;;;;;;;27.16;60.99;97848.41;5142189;27;19999;-65
2022/08/01 06:07:39;;;;;;;;;;;;;;;27.30;61.03;97840.34;5143086;27;19941;-65
2022/08/01 06:10:06;;;;;;;;;;;;;;;27.36;61.50;97841.59;5145471;27;19927;-66
2022/08/01 06:12:33;;;;;;;;;;;;;;;27.26;61.14;97839.53;5137201;27;19980;-65
2022/08/01 06:14:59;;;;;;;;;;;;;;;27.42;61.28;97845.59;5141699;27;19924;-66
2022/08/01 06:17:25;;;;;;;;;;;;;;;27.61;60.94;97842.69;5140897;27;19946;-66
2022/08/01 06:19:52;;;;;;;;;;;;;;;27.74;60.37;97848.69;5144853;27;19930;-65
2022/08/01 06:22:20;;;;;;;;;;;;;;;27.75;60.59;97858.53;5145257;27;19970;-65
2022/08/01 06:24:46;;;;;;;;;;;;;;;27.81;60.14;97848.78;5142518;27;19999;-65
2022/08/01 06:27:12;;;;;;;;;;;;;;;27.64;60.83;97858.41;5141620;27;19928;-65
2022/08/01 06:29:39;;;;;;;;;;;;;;;27.76;60.88;97860.88;5141540;27;19991;-65
2022/08/01 06:32:06;;;;;;;;;;;;;;;27.86;60.58;97859.41;5144931;27;19927;-65
2022/08/01 06:34:32;;;;;;;;;;;;;;;28.00;60.48;97853.28;5144657;27;20400;-65
2022/08/01 06:36:59;;;;;;;;;;;;;;;28.12;60.39;97861.25;5141184;27;19927;-66
2022/08/01 06:39:26;;;;;;;;;;;;;;;28.06;60.38;97860.03;5141374;27;19959;-65
2022/08/01 06:41:52;;;;;;;;;;;;;;;27.99;60.76;97865.41;5141472;27;19923;-66
2022/08/01 06:44:19;;;;;;;;;;;;;;;27.98;61.14;97864.63;5139661;27;19966;-65
2022/08/01 06:46:45;;;;;;;;;;;;;;;28.13;61.11;97865.59;5142374;27;19999;-66
2022/08/01 06:49:12;;;;;;;;;;;;;;;28.20;60.54;97854.66;5141267;27;19952;-65
2022/08/01 06:51:38;;;;;;;;;;;;;;;28.46;60.58;97864.66;5142089;27;19961;-66
2022/08/01 06:54:04;;;;;;;;;;;;;;;28.67;60.11;97862.88;5144712;27;19931;-66
2022/08/01 06:56:34;;;;;;;;;;;;;;;28.78;59.29;97871.97;5144570;27;19984;-66
2022/08/01 06:59:01;;;;;;;;;;;;;;;28.39;60.07;97857.94;5140981;27;19946;-65
2022/08/01 07:01:27;;;;;;;;;;;;;;;28.45;60.24;97860.34;5140969;27;19930;-64
2022/08/01 07:03:54;;;;;;;;;;;;;;;28.34;60.02;97863.81;5144384;27;19919;-66
2022/08/01 07:06:20;;;;;;;;;;;;;;;28.03;61.11;97866.25;5144603;27;19951;-64
2022/08/01 07:08:47;;;;;;;;;;;;;;;28.21;61.27;97859.78;5141692;27;20342;-65
2022/08/01 07:11:13;;;;;;;;;;;;;;;28.60;60.42;97868.28;5140926;27;19931;-65
2022/08/01 07:13:41;;;;;;;;;;;;;;;28.53;61.05;97870.22;5134057;27;19959;-66
2022/08/01 07:16:07;;;;;;;;;;;;;;;28.73;59.96;97875.09;5144130;27;20265;-65
2022/08/01 07:18:33;;;;;;;;;;;;;;;28.88;59.79;97871.25;5143657;27;19923;-65
2022/08/01 07:21:00;;;;;;;;;;;;;;;29.04;59.01;97864.66;5140549;27;19924;-65
2022/08/01 07:23:26;;;;;;;;;;;;;;;29.15;59.15;97871.81;5140634;27;19934;-65
2022/08/01 07:25:52;;;;;;;;;;;;;;;28.68;59.39;97872.72;5143590;27;19923;-65
2022/08/01 07:28:19;;;;;;;;;;;;;;;28.69;60.34;97882.53;5144228;27;19926;-64
2022/08/01 07:30:47;;;;;;;;;;;;;;;28.45;61.06;97877.59;5140535;27;19931;-66
2022/08/01 07:33:13;;;;;;;;;;;;;;;28.67;61.14;97886.84;5140215;27;19958;-66
2022/08/01 07:35:41;;;;;;;;;;;;;;;28.60;61.00;97887.53;5141359;27;19966;-66
2022/08/01 07:38:07;;;;;;;;;;;;;;;28.86;60.51;97884.63;5143728;27;19954;-65
2022/08/01 07:40:34;;;;;;;;;;;;;;;29.15;59.99;97884.78;5143215;27;19927;-65
2022/08/01 07:43:00;;;;;;;;;;;;;;;29.00;60.24;97880.38;5132180;27;19931;-65
2022/08/01 07:45:27;;;;;;;;;;;;;;;29.26;59.68;97878.16;5138881;27;19996;-65
2022/08/01 07:47:55;;;;;;;;;;;;;;;29.19;59.22;97874.56;5143333;27;20374;-65
2022/08/01 07:50:21;;;;;;;;;;;;;;;28.87;59.91;97888.16;5143523;27;19947;-66
2022/08/01 07:52:47;;;;;;;;;;;;;;;28.60;60.57;97878.50;5140857;27;19927;-66
2022/08/01 07:55:14;;;;;;;;;;;;;;;28.35;61.83;97887.34;5139396;27;19924;-65
2022/08/01 07:57:40;;;;;;;;;;;;;;;28.53;62.23;97884.75;5141343;27;19930;-66
2022/08/01 08:00:08;;;;;;;;;;;;;;;28.31;62.33;97877.50;5143390;27;20081;-65
2022/08/01 08:02:35;;;;;;;;;;;;;;;28.68;61.38;97880.97;5142576;27;19991;-65
2022/08/01 08:05:03;;;;;;;;;;;;;;;29.06;60.82;97878.84;5139740;27;19924;-66
2022/08/01 08:07:30;;;;;;;;;;;;;;;29.04;60.34;97878.41;5139741;27;19924;-66
2022/08/01 08:09:56;;;;;;;;;;;;;;;28.64;61.44;97877.38;5131229;27;19920;-65
2022/08/01 08:12:22;;;;;;;;;;;;;;;29.34;59.85;97887.22;5139523;27;19955;-66
2022/08/01 08:14:49;;;;;;;;;;;;;;;29.59;58.91;97881.81;5139492;27;19958;-66
2022/08/01 08:17:15;;;;;;;;;;;;;;;29.85;58.02;97879.56;5139522;27;20424;-66
2022/08/01 08:19:42;;;;;;;;;;;;;;;29.84;57.87;97879.94;5141266;27;19983;-65
2022/08/01 08:22:09;;;;;;;;;;;;;;;29.88;57.56;97884.31;5142803;27;19949;-65
2022/08/01 08:24:36;;;;;;;;;;;;;;;29.89;56.71;97885.88;5142248;27;19994;-65
2022/08/01 08:27:03;;;;;;;;;;;;;;;29.65;57.04;97870.03;5139438;27;19991;-65
2022/08/01 08:29:31;;;;;;;;;;;;;;;29.72;57.50;97870.06;5139398;27;19946;-65
2022/08/01 08:31:58;;;;;;;;;;;;;;;29.88;56.96;97876.03;5131276;27;19927;-65
2022/08/01 08:34:25;;;;;;;;;;;;;;;29.90;57.01;97872.88;5139354;27;19930;-64
2022/08/01 08:36:51;;;;;;;;;;;;;;;30.05;56.59;97874.47;5142196;27;19962;-65
2022/08/01 08:39:19;;;;;;;;;;;;;;;29.99;56.52;97876.84;5142937;27;20398;-65
2022/08/01 08:41:45;;;;;;;;;;;;;;;29.86;56.66;97881.16;5140509;27;19938;-65
2022/08/01 08:44:11;;;;;;;;;;;;;;;29.81;56.75;97881.50;5136479;27;19969;-66
2022/08/01 08:46:41;;;;;;;;;;;;;;;29.58;56.95;97880.25;5141506;27;20018;-64
2022/08/01 08:49:07;;;;;;;;;;;;;;;29.35;56.89;97886.06;5139137;27;19924;-65
2022/08/01 08:51:34;;;;;;;;;;;;;;;29.20;57.76;97887.94;5139536;27;19974;-65
2022/08/01 08:54:01;;;;;;;;;;;;;;;29.09;57.41;97870.56;5142375;28;19963;-64
2022/08/01 08:56:33;;;;;;;;;;;;;;;29.01;58.53;97884.69;5142705;28;20174;-64
2022/08/01 08:59:00;;;;;;;;;;;;;;;29.25;58.21;97873.84;5131170;28;19923;-65
2022/08/01 09:01:27;;;;;;;;;;;;;;;29.38;58.01;97882.53;5139000;28;19947;-64
2022/08/01 09:03:54;;;;;;;;;;;;;;;29.38;57.89;97885.28;5142136;28;19943;-65
2022/08/01 09:06:20;;;;;;;;;;;;;;;29.54;57.39;97902.25;5146019;27;19970;-65
2022/08/01 09:08:47;;;;;;;;;;;;;;;29.38;57.64;97888.84;5144459;27;19974;-65
2022/08/01 09:11:13;;;;;;;;;;;;;;;29.43;57.56;97895.94;5143178;27;19947;-64
2022/08/01 09:13:41;;;;;;;;;;;;;;;29.46;57.82;97895.94;5136359;27;19962;-64
2022/08/01 09:16:07;;;;;;;;;;;;;;;29.55;57.40;97892.84;5146730;27;20301;-65
2022/08/01 09:18:35;;;;;;;;;;;;;;;29.61;57.18;97899.53;5146141;27;19920;-65
2022/08/01 09:21:11;;;;;;;;;;;;;;;29.68;57.18;97899.53;5143041;27;20018;-65
2022/08/01 09:23:41;;;;;;;;;;;;;;;29.77;56.60;97888.94;5144094;27;19931;-65
2022/08/01 09:26:08;;;;;;;;;;;;;;;29.76;56.52;97897.59;5146447;27;19930;-67
2022/08/01 09:28:35;;;;;;;;;;;;;;;29.90;55.65;97892.94;5145773;27;19924;-66
2022/08/01 09:31:07;;;;;;;;;;;;;;;29.82;56.34;97885.88;5142655;27;19959;-65
2022/08/01 09:33:47;;;;;;;;;;;;;;;29.91;55.31;97889.03;5142936;27;20179;-65
2022/08/01 09:36:13;;;;;;;;;;;;;;;30.05;55.58;97884.72;5146175;27;19962;-65
2022/08/01 09:38:40;;;;;;;;;;;;;;;30.22;54.88;97883.94;5144875;27;19955;-65
2022/08/01 09:41:07;;;;;;;;;;;;;;;30.17;55.04;97881.59;5142555;27;19959;-66
2022/08/01 09:43:33;;;;;;;;;;;;;;;30.14;53.92;97887.88;5134902;27;19949;-65
2022/08/01 09:46:00;;;;;;;;;;;;;;;29.87;54.37;97887.44;5145926;27;19923;-65
2022/08/01 09:48:28;;;;;;;;;;;;;;;29.92;54.09;97889.81;5146263;27;19939;-65
2022/08/01 09:50:55;;;;;;;;;;;;;;;29.87;54.43;97884.69;5142653;27;20583;-67
2022/08/01 09:53:21;;;;;;;;;;;;;;;29.88;54.47;97887.06;5142425;27;19927;-65
2022/08/01 09:55:50;;;;;;;;;;;;;;;29.63;52.68;97899.94;5144842;27;19962;-65
2022/08/01 09:58:17;;;;;;;;;;;;;;;29.33;54.30;97891.16;5146004;27;19920;-65
2022/08/01 10:00:43;;;;;;;;;;;;;;;29.34;54.43;97889.97;5143968;27;19955;-66
2022/08/01 10:03:22;;;;;;;;;;;;;;;29.62;54.26;97895.59;5142204;27;19995;-65
2022/08/01 10:05:50;;;;;;;;;;;;;;;29.71;54.09;97890.50;5144642;27;19935;-66
2022/08/01 10:08:17;;;;;;;;;;;;;;;29.84;54.33;97883.50;5145591;27;19965;-66
2022/08/01 10:11:03;;;;;;;;;;;;;;;29.88;54.52;97892.56;5143256;27;19996;-65
2022/08/01 10:13:30;;;;;;;;;;;;;;;30.10;54.06;97881.56;5133460;27;20022;-66
2022/08/01 10:15:57;;;;;;;;;;;;;;;30.06;53.69;97881.56;5133300;27;19920;-65
2022/08/01 10:18:23;;;;;;;;;;;;;;;30.02;53.72;97878.00;5141278;27;19966;-65
2022/08/01 10:20:51;;;;;;;;;;;;;;;29.94;53.59;97877.22;5144461;27;19974;-65
2022/08/01 10:23:18;;;;;;;;;;;;;;;30.03;53.61;97870.53;5145208;27;20016;-65
2022/08/01 10:25:45;;;;;;;;;;;;;;;30.15;53.04;97870.94;5143095;27;19990;-64
2022/08/01 10:28:15;;;;;;;;;;;;;;;30.22;52.73;97873.72;5141750;27;19959;-65
2022/08/01 10:30:42;;;;;;;;;;;;;;;30.19;52.42;97862.69;5143135;27;19920;-65
2022/08/01 10:33:08;;;;;;;;;;;;;;;30.15;51.83;97868.19;5145226;27;19966;-66
2022/08/01 10:35:35;;;;;;;;;;;;;;;29.96;52.11;97860.31;5144355;27;19991;-65
2022/08/01 10:38:03;;;;;;;;;;;;;;;29.80;52.54;97870.88;5141380;27;19972;-65
2022/08/01 10:40:30;;;;;;;;;;;;;;;29.85;53.05;97863.06;5141579;27;19963;-65
2022/08/01 10:42:57;;;;;;;;;;;;;;;30.03;52.38;97854.81;5125204;27;20583;-66
2022/08/01 10:45:25;;;;;;;;;;;;;;;29.92;52.22;97846.56;5141398;27;19958;-65
2022/08/01 10:47:54;;;;;;;;;;;;;;;29.95;51.95;97847.72;5144213;27;19927;-65
2022/08/01 10:50:24;;;;;;;;;;;;;;;29.99;52.63;97843.78;5145073;27;19997;-65
2022/08/01 10:53:13;;;;;;;;;;;;;;;29.87;51.93;97846.91;5141944;27;20000;-65
2022/08/01 10:55:50;;;;;;;;;;;;;;;30.07;50.27;97854.81;5142165;27;19980;-65
2022/08/01 10:58:26;;;;;;;;;;;;;;;30.12;51.38;97859.94;5144659;27;19928;-66
2022/08/01 11:01:11;;;;;;;;;;;;;;;29.92;47.67;97845.75;5141569;27;19966;-65
2022/08/01 11:03:37;;;;;;;;;;;;;;;29.93;49.83;97844.56;5142122;27;20010;-65
2022/08/01 11:06:04;;;;;;;;;;;;;;;30.06;49.60;97842.22;5144732;27;20276;-66
2022/08/01 11:08:36;;;;;;;;;;;;;;;30.03;49.56;97845.75;5144678;27;19933;-66
2022/08/01 11:11:03;;;;;;;;;;;;;;;30.13;48.44;97850.50;5133483;27;19962;-66
2022/08/01 11:13:47;;;;;;;;;;;;;;;30.15;49.40;97848.13;5132907;28;19924;-64
2022/08/01 11:16:26;;;;;;;;;;;;;;;30.10;49.21;97843.81;5135058;27;19958;-66
2022/08/01 11:18:52;;;;;;;;;;;;;;;29.85;49.21;97840.25;5144438;27;19955;-66
2022/08/01 11:21:19;;;;;;;;;;;;;;;29.78;49.87;97838.22;5144528;27;19971;-65
2022/08/01 11:23:49;;;;;;;;;;;;;;;29.96;49.95;97841.03;5141359;27;19934;-65
2022/08/01 11:26:17;;;;;;;;;;;;;;;30.17;49.28;97840.28;5140889;27;19958;-64
2022/08/01 11:28:44;;;;;;;;;;;;;;;30.07;49.22;97836.34;5141409;27;19955;-65
2022/08/01 11:31:28;;;;;;;;;;;;;;;29.93;50.12;97841.81;5144158;27;19930;-65
2022/08/01 11:33:55;;;;;;;;;;;;;;;30.02;50.26;97833.19;5140274;27;19931;-66
2022/08/01 11:36:22;;;;;;;;;;;;;;;29.97;50.47;97837.09;5140341;27;20456;-64
2022/08/01 11:39:10;;;;;;;;;;;;;;;29.95;50.12;97847.72;5142947;27;19924;-65
2022/08/01 11:41:37;;;;;;;;;;;;;;;30.07;49.67;97843.81;5142920;27;19923;-66
2022/08/01 11:44:04;;;;;;;;;;;;;;;30.14;49.31;97841.84;5135101;27;19927;-65
2022/08/01 11:46:50;;;;;;;;;;;;;;;30.02;49.83;97844.19;5143603;27;19928;-65
2022/08/01 11:49:27;;;;;;;;;;;;;;;30.06;49.71;97839.47;5133899;27;19943;-64
2022/08/01 11:52:05;;;;;;;;;;;;;;;30.09;48.66;97833.16;5143342;27;19942;-64
2022/08/01 11:54:34;;;;;;;;;;;;;;;30.15;49.12;97837.09;5143704;27;19923;-65
2022/08/01 11:57:02;;;;;;;;;;;;;;;30.25;49.12;97836.31;5139986;27;19928;-66
2022/08/01 11:59:29;;;;;;;;;;;;;;;30.40;49.01;97840.69;5140107;27;19930;-65
2022/08/01 12:01:55;;;;;;;;;;;;;;;30.58;48.44;97841.44;5143383;27;19953;-65
2022/08/01 12:04:22;;;;;;;;;;;;;;;30.48;48.70;97847.78;5143521;27;19962;-65
2022/08/01 12:06:48;;;;;;;;;;;;;;;30.54;47.88;97837.13;5140838;27;20619;-65
2022/08/01 12:09:19;;;;;;;;;;;;;;;30.32;48.12;97826.09;5139868;27;19967;-65
2022/08/01 12:11:47;;;;;;;;;;;;;;;30.40;48.09;97826.91;5140232;27;19924;-65
2022/08/01 12:14:18;;;;;;;;;;;;;;;30.39;48.08;97836.38;5137336;27;19923;-65
2022/08/01 12:16:54;;;;;;;;;;;;;;;30.38;48.03;97824.53;5141192;27;19923;-66
2022/08/01 12:19:21;;;;;;;;;;;;;;;30.24;47.83;97831.97;5139616;27;19966;-65
2022/08/01 12:22:03;;;;;;;;;;;;;;;30.21;47.96;97828.06;5141702;27;19931;-65
2022/08/01 12:24:29;;;;;;;;;;;;;;;30.09;47.52;97830.41;5143105;27;19924;-65
2022/08/01 12:26:57;;;;;;;;;;;;;;;30.17;47.98;97823.75;5139702;27;19948;-65
2022/08/01 12:29:34;;;;;;;;;;;;;;;30.13;47.59;97834.75;5139712;27;19988;-65
2022/08/01 12:32:01;;;;;;;;;;;;;;;30.22;47.79;97842.63;5131525;27;20469;-66
2022/08/01 12:34:28;;;;;;;;;;;;;;;30.19;47.84;97835.16;5139186;27;19923;-66
2022/08/01 12:36:55;;;;;;;;;;;;;;;30.26;47.43;97835.94;5142561;27;19923;-66
2022/08/01 12:39:21;;;;;;;;;;;;;;;30.43;47.22;97834.38;5142390;27;19928;-65
2022/08/01 12:41:48;;;;;;;;;;;;;;;30.42;47.51;97833.56;5140023;27;20452;-66
2022/08/01 12:44:16;;;;;;;;;;;;;;;30.35;48.15;97838.28;5137013;27;19939;-65
2022/08/01 12:46:43;;;;;;;;;;;;;;;30.39;47.37;97836.38;5141202;27;19959;-66
2022/08/01 12:49:09;;;;;;;;;;;;;;;30.26;47.58;97829.66;5139104;27;19920;-64
2022/08/01 12:51:36;;;;;;;;;;;;;;;30.20;47.92;97828.47;5139922;27;19926;-64
2022/08/01 12:54:04;;;;;;;;;;;;;;;30.38;47.23;97834.75;5142579;27;19945;-65